Time;durP1;ratioP1;P1;durP2;ratioP2;P2;SDS_P1;SDS_P2;PMS_P1;PMS_P2;Temp;Humidity;BMP_temperature;BMP_pressure;BME280_temperature;BME280_humidity;BME280_pressure;Samples;Min_cycle;Max_cycle;Signal;HPM_P1;HPM_P2
2022/06/03 04:14:58;;;;;;;7.70;4.75;;;;;;;16.09;78.49;100879.38;5555301;32;246398;-85
2022/06/03 04:18:36;;;;;;;6.25;4.80;;;;;;;16.16;79.03;100888.72;5543265;32;34583;-89
2022/06/03 04:22:21;;;;;;;6.37;4.87;;;;;;;16.33;77.83;100900.12;5543201;32;34657;-84
2022/06/03 04:25:40;;;;;;;5.35;4.85;;;;;;;16.56;76.85;100892.41;5541248;32;32536;-85
2022/06/03 04:28:46;;;;;;;7.50;4.82;;;;;;;16.68;77.31;100896.06;5542089;32;32504;-85
2022/06/03 04:32:04;;;;;;;6.35;4.80;;;;;;;16.76;76.74;100896.44;5543002;32;33931;-85
2022/06/03 04:35:25;;;;;;;6.18;5.00;;;;;;;17.01;76.84;100900.09;5543212;32;33513;-85
2022/06/03 04:39:14;;;;;;;4.55;4.12;;;;;;;17.12;76.21;100904.75;5544879;32;33782;-86
2022/06/03 04:42:31;;;;;;;4.47;3.70;;;;;;;17.66;73.75;100910.84;5507388;32;33946;-87
2022/06/03 04:46:01;;;;;;;5.97;4.55;;;;;;;18.59;70.52;100896.06;5543311;32;33952;-87
2022/06/03 04:49:24;;;;;;;6.72;4.50;;;;;;;18.62;70.03;100900.34;5543490;32;33781;-87
2022/06/03 04:52:46;;;;;;;5.05;3.97;;;;;;;18.84;68.54;100910.31;5543175;32;33763;-87
2022/06/03 04:56:27;;;;;;;5.25;4.03;;;;;;;19.26;66.62;100907.13;5545291;32;34985;-86
2022/06/03 04:59:51;;;;;;;6.43;4.43;;;;;;;19.61;65.26;100899.94;5531322;32;35551;-87
2022/06/03 05:03:03;;;;;;;6.45;4.55;;;;;;;19.78;64.38;100885.13;5543144;32;34153;-91
2022/06/03 05:06:24;;;;;;;6.68;4.65;;;;;;;19.82;64.44;100903.72;5544038;32;33742;-87
2022/06/03 05:09:50;;;;;;;5.32;4.35;;;;;;;19.62;64.78;100901.66;5544177;32;33831;-87
2022/06/03 05:13:47;;;;;;;4.85;4.35;;;;;;;19.79;63.14;100905.69;5544217;32;34548;-87
2022/06/03 05:17:29;;;;;;;7.65;4.57;;;;;;;20.79;59.53;100902.97;5480751;32;34270;-87
2022/06/03 05:20:34;;;;;;;5.17;4.23;;;;;;;21.66;57.74;100913.56;5539937;32;34112;-86
2022/06/03 05:23:43;;;;;;;4.03;3.72;;;;;;;24.46;48.67;100916.44;5536487;32;34338;-87
2022/06/03 05:27:08;;;;;;;5.35;3.90;;;;;;;26.96;42.92;100915.75;5521958;32;35194;-91
2022/06/03 05:30:19;;;;;;;5.93;3.50;;;;;;;29.03;37.76;100922.09;5528954;32;34540;-87
2022/06/03 05:33:42;;;;;;;3.50;3.30;;;;;;;30.26;34.79;100934.47;5529849;32;32458;-87
2022/06/03 05:36:44;;;;;;;3.72;3.42;;;;;;;31.76;32.38;100929.16;5530734;32;32879;-88
2022/06/03 05:39:53;;;;;;;5.57;3.72;;;;;;;33.09;29.59;100921.41;5534407;32;34895;-84
2022/06/03 05:43:18;;;;;;;5.35;3.30;;;;;;;33.47;28.67;100933.59;5541843;32;33401;-87
2022/06/03 05:46:33;;;;;;;4.93;3.00;;;;;;;34.47;27.35;100936.97;5546946;32;35245;-89
2022/06/03 05:50:03;;;;;;;3.55;3.08;;;;;;;35.84;25.93;100930.00;5531816;32;32332;-89
2022/06/03 05:53:32;;;;;;;4.28;3.20;;;;;;;36.00;25.28;100925.72;5541145;32;33791;-89
2022/06/03 06:41:15;;;;;;;6.25;3.22;;;;;;;32.61;29.56;100920.56;4093659;29;20114;-90
2022/06/03 06:44:57;;;;;;;4.63;3.60;;;;;;;30.60;31.44;100913.78;5550851;32;33674;-91
2022/06/03 06:55:55;;;;;;;6.28;3.70;;;;;;;28.63;35.86;100911.31;3306949;26;20111;-91
2022/06/03 07:22:17;;;;;;;6.07;3.70;;;;;;;28.62;33.82;100890.53;5531196;32;34743;-91
2022/06/03 08:03:41;;;;;;;3.62;2.80;;;;;;;29.44;31.16;100871.63;4076559;30;20112;-87
2022/06/03 08:17:23;;;;;;;3.20;3.00;;;;;;;29.88;29.70;100877.22;5554673;26;20116;-89
2022/06/03 08:20:28;;;;;;;3.55;2.90;;;;;;;30.50;28.77;100866.72;5560395;32;34708;-88
2022/06/03 08:23:33;;;;;;;3.17;2.87;;;;;;;30.67;28.93;100857.19;5536009;32;32556;-89
2022/06/03 08:26:39;;;;;;;6.07;2.92;;;;;;;31.32;28.07;100869.06;5549464;32;33914;-89
2022/06/03 08:29:54;;;;;;;4.45;3.03;;;;;;;31.93;27.09;100864.66;5583646;26;34237;-90
2022/06/03 08:33:17;;;;;;;3.20;2.90;;;;;;;32.24;28.02;100868.75;5554204;32;34419;-90
2022/06/03 12:33:07;;;;;;;5.32;2.87;;;;;;;30.90;27.65;100686.34;5597327;31;107617;-87
2022/06/03 12:36:10;;;;;;;3.50;2.83;;;;;;;30.90;27.65;100686.34;5593418;31;33418;-88
2022/06/03 12:39:53;;;;;;;3.10;2.90;;;;;;;30.46;28.01;100680.19;5580188;31;33757;-87
2022/06/03 12:42:56;;;;;;;3.50;3.20;;;;;;;30.34;28.51;100685.38;5576416;31;33645;-88
2022/06/03 12:46:08;;;;;;;3.85;2.92;;;;;;;29.98;28.91;100672.69;5577471;31;33696;-88
2022/06/03 12:49:18;;;;;;;5.62;3.03;;;;;;;29.91;28.91;100672.62;5583746;31;35128;-89
2022/06/03 12:52:27;;;;;;;6.07;2.90;;;;;;;30.33;28.69;100669.16;5582681;31;32816;-88
2022/06/03 12:59:47;;;;;;;4.15;2.58;;;;;;;30.49;29.55;100657.91;5416139;26;20786;-89
2022/06/03 13:02:57;;;;;;;5.18;2.87;;;;;;;30.59;28.45;100657.53;5560774;32;33905;-89
2022/06/03 13:06:03;;;;;;;3.80;2.78;;;;;;;30.01;29.53;100655.03;5563080;32;33750;-88
2022/06/03 13:12:32;;;;;;;3.25;2.70;;;;;;;30.12;30.03;100649.06;5561570;32;34200;-88
2022/06/03 13:15:38;;;;;;;8.27;3.42;;;;;;;29.81;28.66;100647.53;5554550;32;33946;-88
2022/06/03 13:18:49;;;;;;;4.65;3.40;;;;;;;29.84;29.42;100637.03;5565679;32;34347;-90
2022/06/03 13:21:59;;;;;;;7.97;3.00;;;;;;;30.01;28.60;100646.81;5558131;32;33927;-88
2022/06/03 13:25:15;;;;;;;10.00;3.25;;;;;;;30.26;28.90;100642.59;5558946;32;34362;-92
2022/06/03 13:28:38;;;;;;;4.68;3.20;;;;;;;30.58;28.45;100630.34;5540044;32;32660;-90
2022/06/03 13:31:41;;;;;;;3.40;3.10;;;;;;;30.20;28.40;100628.88;5540509;32;32506;-88
2022/06/03 13:34:44;;;;;;;6.93;3.75;;;;;;;30.11;28.63;100630.94;5550349;32;34305;-89
2022/06/03 13:38:12;;;;;;;13.02;3.95;;;;;;;30.34;29.32;100627.06;5534108;32;32962;-87
2022/06/03 13:45:23;;;;;;;6.03;3.20;;;;;;;30.08;28.78;100621.25;5520070;32;32475;-86
2022/06/03 13:48:41;;;;;;;3.45;3.00;;;;;;;30.49;29.11;100625.06;5529769;32;36087;-86
2022/06/03 13:51:47;;;;;;;4.72;3.40;;;;;;;30.33;28.34;100608.97;5533128;32;33773;-85
2022/06/03 13:55:00;;;;;;;5.97;3.33;;;;;;;30.49;28.77;100611.38;5535019;32;34334;-87
2022/06/03 13:58:15;;;;;;;3.20;3.00;;;;;;;30.56;28.22;100613.31;5532799;32;33703;-91
2022/06/03 14:01:32;;;;;;;4.70;3.10;;;;;;;30.72;27.93;100607.50;5531571;32;33465;-88
2022/06/03 14:04:48;;;;;;;3.47;3.17;;;;;;;30.93;28.22;100601.03;5547800;32;33982;-85
2022/06/03 14:07:59;;;;;;;4.43;2.58;;;;;;;30.87;27.81;100598.28;5536207;32;33270;-90
2022/06/03 14:11:04;;;;;;;4.35;2.80;;;;;;;30.75;28.21;100593.41;5549692;32;33988;-88
2022/06/03 14:14:09;;;;;;;3.15;2.70;;;;;;;30.72;28.96;100596.53;5549318;32;34124;-88
2022/06/03 14:17:31;;;;;;;4.43;2.80;;;;;;;30.70;27.91;100597.78;5550093;32;34808;-89
2022/06/03 14:20:42;;;;;;;7.50;3.08;;;;;;;30.43;28.50;100581.25;5540051;32;34803;-88
2022/06/03 14:23:48;;;;;;;7.93;2.70;;;;;;;30.69;28.01;100591.50;5533850;32;33804;-88
2022/06/03 14:27:00;;;;;;;4.40;2.40;;;;;;;30.37;28.25;100585.66;5553605;32;34251;-88
2022/06/03 14:30:23;;;;;;;5.20;2.53;;;;;;;30.36;28.34;100582.06;5546126;32;33601;-88
2022/06/03 14:33:38;;;;;;;3.53;2.33;;;;;;;30.17;28.00;100577.31;5548957;32;34357;-89
2022/06/03 14:36:44;;;;;;;5.57;2.60;;;;;;;30.47;28.20;100580.63;5589379;26;34981;-88
2022/06/03 14:39:51;;;;;;;4.80;2.20;;;;;;;30.06;28.51;100579.53;5534981;32;33800;-92
2022/06/03 14:42:59;;;;;;;2.75;2.40;;;;;;;30.18;28.15;100570.81;5547328;32;34142;-88
2022/06/03 14:46:12;;;;;;;2.50;2.30;;;;;;;30.36;28.11;100568.38;5556213;26;34223;-88
2022/06/03 14:49:21;;;;;;;4.12;2.35;;;;;;;30.29;27.95;100569.37;5545927;32;33806;-88
2022/06/03 14:52:38;;;;;;;4.80;2.47;;;;;;;30.05;28.29;100560.59;5549272;32;34405;-88
2022/06/03 14:55:54;;;;;;;5.80;2.47;;;;;;;29.69;28.74;100566.06;5530698;32;33595;-89
2022/06/03 14:59:04;;;;;;;3.53;2.50;;;;;;;29.43;29.48;100559.31;5548249;32;34601;-88
2022/06/03 15:02:21;;;;;;;2.97;2.30;;;;;;;29.76;29.05;100552.41;5542612;32;33993;-87
2022/06/03 15:05:25;;;;;;;10.65;2.70;;;;;;;29.83;28.94;100534.16;5579565;26;33894;-90
2022/06/03 15:09:05;;;;;;;3.37;2.45;;;;;;;29.51;29.56;100527.44;5571557;26;34289;-90
2022/06/03 15:12:27;;;;;;;2.62;2.33;;;;;;;29.68;29.44;100517.06;5548285;32;33834;-88
2022/06/03 15:15:33;;;;;;;3.25;2.10;;;;;;;29.30;29.92;100526.38;5532326;32;34037;-87
2022/06/03 15:18:35;;;;;;;2.60;2.10;;;;;;;29.40;29.46;100532.37;5532557;32;34152;-89
2022/06/03 15:21:40;;;;;;;5.60;2.55;;;;;;;29.38;29.45;100518.06;5548272;32;34989;-91
2022/06/03 15:24:56;;;;;;;5.10;2.50;;;;;;;29.54;29.58;100527.88;5537514;32;35534;-93
2022/06/03 15:28:05;;;;;;;2.20;2.08;;;;;;;29.54;29.58;100533.34;5550987;32;34712;-89
2022/06/03 15:31:18;;;;;;;2.85;2.50;;;;;;;29.32;29.86;100536.06;5551337;32;33816;-89
2022/06/03 15:34:22;;;;;;;2.50;2.30;;;;;;;29.10;30.08;100534.44;5549274;32;34008;-89
2022/06/03 15:37:26;;;;;;;2.87;2.30;;;;;;;29.15;30.36;100538.25;5545922;32;34217;-86
2022/06/03 15:40:32;;;;;;;2.40;2.30;;;;;;;29.17;30.55;100536.16;5549499;32;34983;-88
2022/06/03 15:43:41;;;;;;;2.70;2.50;;;;;;;29.31;30.54;100531.66;5552510;32;33960;-89
2022/06/03 15:46:57;;;;;;;4.53;2.60;;;;;;;29.11;30.66;100536.09;5553315;32;34322;-88
2022/06/03 15:50:06;;;;;;;13.13;2.60;;;;;;;29.16;31.04;100534.47;5529162;32;32200;-87
2022/06/03 15:53:25;;;;;;;4.25;2.42;;;;;;;29.29;30.78;100535.63;5548597;32;33835;-88
2022/06/03 15:56:27;;;;;;;3.42;2.28;;;;;;;29.17;30.81;100527.97;5545524;32;33883;-87
2022/06/03 16:00:00;;;;;;;8.63;2.50;;;;;;;29.18;30.29;100521.44;5530451;32;33840;-88
2022/06/03 16:03:16;;;;;;;6.55;2.70;;;;;;;29.11;31.25;100517.00;5528825;32;34404;-87
2022/06/03 16:06:32;;;;;;;2.90;2.60;;;;;;;29.04;31.62;100509.59;5543152;32;33933;-87
2022/06/03 16:09:51;;;;;;;2.65;2.45;;;;;;;29.29;31.57;100505.59;5549374;32;34857;-91
